sensor_id;sensor_type;location;lat;lon;timestamp;pressure;altitude;pressure_sealevel;temperature;humidity
13420;BME280;6781;58.440;15.470;2023-04-15T00:01:47;101995.41;;;3.11;100.00
13420;BME280;6781;58.440;15.470;2023-04-15T00:04:17;102015.13;;;3.09;100.00
13420;BME280;6781;58.440;15.470;2023-04-15T00:06:50;102003.06;;;3.13;100.00
13420;BME280;6781;58.440;15.470;2023-04-15T00:09:20;102173.13;;;4.14;100.00
13420;BME280;6781;58.440;15.470;2023-04-15T00:11:54;102030.34;;;3.15;100.00
13420;BME280;6781;58.440;15.470;2023-04-15T00:14:33;102119.53;;;3.71;100.00
13420;BME280;6781;58.440;15.470;2023-04-15T00:17:23;101991.19;;;3.10;100.00
13420;BME280;6781;58.440;15.470;2023-04-15T00:20:00;102245.25;;;4.70;100.00
13420;BME280;6781;58.440;15.470;2023-04-15T00:22:32;101999.59;;;3.15;100.00
13420;BME280;6781;58.440;15.470;2023-04-15T00:25:23;102024.19;;;3.22;100.00
13420;BME280;6781;58.440;15.470;2023-04-15T00:27:56;102007.25;;;3.17;100.00
13420;BME280;6781;58.440;15.470;2023-04-15T00:30:24;102038.16;;;3.11;100.00
13420;BME280;6781;58.440;15.470;2023-04-15T00:32:51;102022.66;;;3.15;100.00
13420;BME280;6781;58.440;15.470;2023-04-15T00:35:18;102164.81;;;4.06;100.00
13420;BME280;6781;58.440;15.470;2023-04-15T00:37:48;102121.44;;;3.63;100.00
13420;BME280;6781;58.440;15.470;2023-04-15T00:40:17;102031.22;;;3.14;100.00
13420;BME280;6781;58.440;15.470;2023-04-15T00:42:45;102043.22;;;3.12;100.00
13420;BME280;6781;58.440;15.470;2023-04-15T00:45:17;102136.78;;;3.64;100.00
13420;BME280;6781;58.440;15.470;2023-04-15T00:47:45;102039.22;;;3.02;100.00
13420;BME280;6781;58.440;15.470;2023-04-15T00:50:12;102190.56;;;4.03;100.00
13420;BME280;6781;58.440;15.470;2023-04-15T00:52:44;102046.09;;;3.00;100.00
13420;BME280;6781;58.440;15.470;2023-04-15T00:55:13;102288.38;;;4.58;100.00
13420;BME280;6781;58.440;15.470;2023-04-15T00:57:40;102145.28;;;3.66;100.00
13420;BME280;6781;58.440;15.470;2023-04-15T01:00:11;102189.09;;;3.92;100.00
13420;BME280;6781;58.440;15.470;2023-04-15T01:02:38;102029.09;;;2.96;100.00
13420;BME280;6781;58.440;15.470;2023-04-15T01:05:06;102029.88;;;3.00;100.00
13420;BME280;6781;58.440;15.470;2023-04-15T01:07:33;102051.88;;;3.08;100.00
13420;BME280;6781;58.440;15.470;2023-04-15T01:10:01;102019.88;;;2.89;100.00
13420;BME280;6781;58.440;15.470;2023-04-15T01:12:32;102036.84;;;2.94;100.00
13420;BME280;6781;58.440;15.470;2023-04-15T01:15:04;102294.50;;;4.54;100.00
13420;BME280;6781;58.440;15.470;2023-04-15T01:17:34;102319.38;;;4.52;100.00
13420;BME280;6781;58.440;15.470;2023-04-15T01:20:15;102065.06;;;2.93;100.00
13420;BME280;6781;58.440;15.470;2023-04-15T01:22:45;102132.44;;;3.34;100.00
13420;BME280;6781;58.440;15.470;2023-04-15T01:25:27;102309.09;;;4.52;100.00
13420;BME280;6781;58.440;15.470;2023-04-15T01:28:00;102061.31;;;3.06;100.00
13420;BME280;6781;58.440;15.470;2023-04-15T01:30:32;102124.63;;;3.38;100.00
13420;BME280;6781;58.440;15.470;2023-04-15T01:33:02;102091.34;;;3.01;100.00
13420;BME280;6781;58.440;15.470;2023-04-15T01:35:31;102077.13;;;2.88;100.00
13420;BME280;6781;58.440;15.470;2023-04-15T01:38:02;102040.69;;;2.75;100.00
13420;BME280;6781;58.440;15.470;2023-04-15T01:40:32;102234.38;;;3.95;100.00
13420;BME280;6781;58.440;15.470;2023-04-15T01:43:00;102075.69;;;3.13;100.00
13420;BME280;6781;58.440;15.470;2023-04-15T01:45:28;102310.88;;;4.50;100.00
13420;BME280;6781;58.440;15.470;2023-04-15T01:47:55;102083.50;;;3.07;100.00
13420;BME280;6781;58.440;15.470;2023-04-15T01:50:23;102089.59;;;3.03;100.00
13420;BME280;6781;58.440;15.470;2023-04-15T01:52:51;102218.22;;;3.91;100.00
13420;BME280;6781;58.440;15.470;2023-04-15T01:55:18;102080.06;;;3.08;100.00
13420;BME280;6781;58.440;15.470;2023-04-15T01:57:47;102078.41;;;3.06;100.00
13420;BME280;6781;58.440;15.470;2023-04-15T02:00:15;102072.50;;;3.04;100.00
13420;BME280;6781;58.440;15.470;2023-04-15T02:02:42;102093.84;;;3.04;100.00
13420;BME280;6781;58.440;15.470;2023-04-15T02:07:45;102333.88;;;4.55;100.00
13420;BME280;6781;58.440;15.470;2023-04-15T02:10:13;102233.53;;;3.95;100.00
13420;BME280;6781;58.440;15.470;2023-04-15T02:12:41;102216.50;;;3.92;100.00
13420;BME280;6781;58.440;15.470;2023-04-15T02:15:10;102190.72;;;3.61;100.00
13420;BME280;6781;58.440;15.470;2023-04-15T02:17:37;102100.34;;;3.17;100.00
13420;BME280;6781;58.440;15.470;2023-04-15T02:20:09;102171.91;;;3.62;100.00
13420;BME280;6781;58.440;15.470;2023-04-15T02:22:36;102091.34;;;3.01;100.00
13420;BME280;6781;58.440;15.470;2023-04-15T02:25:04;102070.88;;;3.00;100.00
13420;BME280;6781;58.440;15.470;2023-04-15T02:27:31;102097.28;;;3.03;100.00
13420;BME280;6781;58.440;15.470;2023-04-15T02:29:58;102278.59;;;4.06;100.00
13420;BME280;6781;58.440;15.470;2023-04-15T02:32:27;102107.09;;;3.21;100.00
13420;BME280;6781;58.440;15.470;2023-04-15T02:35:01;102088.63;;;3.07;100.00
13420;BME280;6781;58.440;15.470;2023-04-15T02:37:29;102138.94;;;3.11;100.00
13420;BME280;6781;58.440;15.470;2023-04-15T02:39:56;102093.97;;;2.98;100.00
13420;BME280;6781;58.440;15.470;2023-04-15T02:42:23;102134.97;;;3.35;100.00
13420;BME280;6781;58.440;15.470;2023-04-15T02:44:53;102075.16;;;2.99;100.00
13420;BME280;6781;58.440;15.470;2023-04-15T02:47:20;102247.09;;;4.00;100.00
13420;BME280;6781;58.440;15.470;2023-04-15T02:49:50;102248.72;;;4.04;100.00
13420;BME280;6781;58.440;15.470;2023-04-15T02:52:18;102160.09;;;3.55;100.00
13420;BME280;6781;58.440;15.470;2023-04-15T02:54:45;102345.59;;;4.65;100.00
13420;BME280;6781;58.440;15.470;2023-04-15T02:57:13;102089.34;;;3.14;100.00
13420;BME280;6781;58.440;15.470;2023-04-15T02:59:40;102125.28;;;3.11;100.00
13420;BME280;6781;58.440;15.470;2023-04-15T03:02:07;102257.38;;;4.00;100.00
13420;BME280;6781;58.440;15.470;2023-04-15T03:04:35;102348.19;;;4.64;100.00
13420;BME280;6781;58.440;15.470;2023-04-15T03:07:04;102112.72;;;3.00;100.00
13420;BME280;6781;58.440;15.470;2023-04-15T03:09:34;102107.44;;;3.06;100.00
13420;BME280;6781;58.440;15.470;2023-04-15T03:12:12;102087.31;;;2.91;100.00
13420;BME280;6781;58.440;15.470;2023-04-15T03:14:39;102136.06;;;3.25;100.00
13420;BME280;6781;58.440;15.470;2023-04-15T03:19:49;102377.28;;;4.66;100.00
13420;BME280;6781;58.440;15.470;2023-04-15T03:22:18;102261.63;;;4.01;100.00
13420;BME280;6781;58.440;15.470;2023-04-15T03:24:45;102157.22;;;3.33;100.00
13420;BME280;6781;58.440;15.470;2023-04-15T03:27:12;102156.75;;;3.17;100.00
13420;BME280;6781;58.440;15.470;2023-04-15T03:29:41;102289.00;;;4.00;100.00
13420;BME280;6781;58.440;15.470;2023-04-15T03:32:09;102164.44;;;3.17;100.00
13420;BME280;6781;58.440;15.470;2023-04-15T03:34:40;102148.38;;;3.09;100.00
13420;BME280;6781;58.440;15.470;2023-04-15T03:37:07;102166.94;;;3.20;100.00
13420;BME280;6781;58.440;15.470;2023-04-15T03:39:36;102112.50;;;3.09;100.00
13420;BME280;6781;58.440;15.470;2023-04-15T03:42:04;102141.56;;;3.08;100.00
13420;BME280;6781;58.440;15.470;2023-04-15T03:44:31;102135.53;;;3.11;100.00
13420;BME280;6781;58.440;15.470;2023-04-15T03:46:58;102142.28;;;3.15;100.00
13420;BME280;6781;58.440;15.470;2023-04-15T03:49:26;102382.41;;;4.66;100.00
13420;BME280;6781;58.440;15.470;2023-04-15T03:51:53;102122.69;;;3.12;100.00
13420;BME280;6781;58.440;15.470;2023-04-15T03:54:20;102301.44;;;4.17;100.00
13420;BME280;6781;58.440;15.470;2023-04-15T03:56:49;102123.63;;;3.08;100.00
13420;BME280;6781;58.440;15.470;2023-04-15T03:59:16;102103.34;;;2.99;100.00
13420;BME280;6781;58.440;15.470;2023-04-15T04:01:43;102384.19;;;4.64;100.00
13420;BME280;6781;58.440;15.470;2023-04-15T04:04:10;102238.47;;;3.67;100.00
13420;BME280;6781;58.440;15.470;2023-04-15T04:06:38;102126.34;;;3.02;100.00
13420;BME280;6781;58.440;15.470;2023-04-15T04:09:05;102163.59;;;3.17;100.00
13420;BME280;6781;58.440;15.470;2023-04-15T04:11:33;102129.50;;;3.13;100.00
13420;BME280;6781;58.440;15.470;2023-04-15T04:14:01;102122.53;;;3.18;100.00
13420;BME280;6781;58.440;15.470;2023-04-15T04:16:32;102171.06;;;3.26;100.00
13420;BME280;6781;58.440;15.470;2023-04-15T04:18:59;102132.31;;;3.03;100.00
13420;BME280;6781;58.440;15.470;2023-04-15T04:21:28;102122.97;;;3.00;100.00
13420;BME280;6781;58.440;15.470;2023-04-15T04:26:36;102123.03;;;2.97;100.00
13420;BME280;6781;58.440;15.470;2023-04-15T04:29:05;102202.75;;;3.23;100.00
13420;BME280;6781;58.440;15.470;2023-04-15T04:31:32;102123.25;;;2.88;100.00
13420;BME280;6781;58.440;15.470;2023-04-15T04:33:59;102120.75;;;2.85;100.00
13420;BME280;6781;58.440;15.470;2023-04-15T04:36:27;102303.16;;;3.81;100.00
13420;BME280;6781;58.440;15.470;2023-04-15T04:38:57;102389.91;;;4.39;100.00
13420;BME280;6781;58.440;15.470;2023-04-15T04:41:26;102148.13;;;2.83;100.00
13420;BME280;6781;58.440;15.470;2023-04-15T04:44:06;102154.34;;;2.71;100.00
13420;BME280;6781;58.440;15.470;2023-04-15T04:46:34;102150.88;;;2.74;100.00
13420;BME280;6781;58.440;15.470;2023-04-15T04:49:02;102196.41;;;3.01;100.00
13420;BME280;6781;58.440;15.470;2023-04-15T04:51:32;102167.63;;;2.88;100.00
13420;BME280;6781;58.440;15.470;2023-04-15T04:54:02;102313.38;;;3.82;100.00
13420;BME280;6781;58.440;15.470;2023-04-15T04:56:32;102155.09;;;2.76;100.00
13420;BME280;6781;58.440;15.470;2023-04-15T04:59:03;102226.56;;;3.29;100.00
13420;BME280;6781;58.440;15.470;2023-04-15T05:01:33;102185.59;;;2.87;100.00
13420;BME280;6781;58.440;15.470;2023-04-15T05:04:00;102152.63;;;2.72;100.00
13420;BME280;6781;58.440;15.470;2023-04-15T05:06:29;102134.00;;;2.64;100.00
13420;BME280;6781;58.440;15.470;2023-04-15T05:09:32;102186.81;;;2.69;100.00
13420;BME280;6781;58.440;15.470;2023-04-15T05:12:03;102173.00;;;2.78;100.00
13420;BME280;6781;58.440;15.470;2023-04-15T05:14:33;102168.78;;;2.75;100.00
13420;BME280;6781;58.440;15.470;2023-04-15T05:17:04;102185.91;;;2.72;100.00
13420;BME280;6781;58.440;15.470;2023-04-15T05:19:31;102431.09;;;4.36;100.00
13420;BME280;6781;58.440;15.470;2023-04-15T05:22:01;102177.84;;;2.90;100.00
13420;BME280;6781;58.440;15.470;2023-04-15T05:24:31;102235.13;;;3.28;100.00
13420;BME280;6781;58.440;15.470;2023-04-15T05:26:58;102170.22;;;2.87;100.00
13420;BME280;6781;58.440;15.470;2023-04-15T05:29:26;102283.88;;;3.63;100.00
13420;BME280;6781;58.440;15.470;2023-04-15T05:31:53;102444.97;;;4.65;100.00
13420;BME280;6781;58.440;15.470;2023-04-15T05:34:24;102313.31;;;3.85;100.00
13420;BME280;6781;58.440;15.470;2023-04-15T05:36:56;102195.09;;;3.22;100.00
13420;BME280;6781;58.440;15.470;2023-04-15T05:39:25;102174.72;;;3.16;100.00
13420;BME280;6781;58.440;15.470;2023-04-15T05:41:59;102188.94;;;3.29;100.00
13420;BME280;6781;58.440;15.470;2023-04-15T05:44:26;102325.28;;;4.22;100.00
13420;BME280;6781;58.440;15.470;2023-04-15T05:46:54;102324.25;;;4.29;100.00
13420;BME280;6781;58.440;15.470;2023-04-15T05:49:44;102307.22;;;4.25;100.00
13420;BME280;6781;58.440;15.470;2023-04-15T05:52:14;102261.75;;;3.95;100.00
13420;BME280;6781;58.440;15.470;2023-04-15T05:54:41;102324.97;;;4.34;100.00
13420;BME280;6781;58.440;15.470;2023-04-15T05:57:08;102323.81;;;4.46;100.00
13420;BME280;6781;58.440;15.470;2023-04-15T05:59:38;102177.22;;;3.54;100.00
13420;BME280;6781;58.440;15.470;2023-04-15T06:02:06;102167.09;;;3.48;100.00
13420;BME280;6781;58.440;15.470;2023-04-15T06:04:34;102416.56;;;5.03;100.00
13420;BME280;6781;58.440;15.470;2023-04-15T06:07:03;102158.31;;;3.58;100.00
13420;BME280;6781;58.440;15.470;2023-04-15T06:09:33;102312.88;;;4.72;100.00
13420;BME280;6781;58.440;15.470;2023-04-15T06:12:01;102399.94;;;5.16;100.00
13420;BME280;6781;58.440;15.470;2023-04-15T06:14:28;102194.06;;;3.99;100.00
13420;BME280;6781;58.440;15.470;2023-04-15T06:16:56;102374.72;;;5.28;100.00
13420;BME280;6781;58.440;15.470;2023-04-15T06:19:31;102102.41;;;3.71;100.00
13420;BME280;6781;58.440;15.470;2023-04-15T06:22:15;102333.16;;;5.13;100.00
13420;BME280;6781;58.440;15.470;2023-04-15T06:24:42;102188.97;;;4.30;100.00
13420;BME280;6781;58.440;15.470;2023-04-15T06:27:10;102281.75;;;4.82;100.00
13420;BME280;6781;58.440;15.470;2023-04-15T06:29:38;102097.13;;;3.77;100.00
13420;BME280;6781;58.440;15.470;2023-04-15T06:32:14;102360.09;;;5.30;100.00
13420;BME280;6781;58.440;15.470;2023-04-15T06:34:41;102267.28;;;4.78;100.00
13420;BME280;6781;58.440;15.470;2023-04-15T06:37:11;102128.31;;;4.25;100.00
13420;BME280;6781;58.440;15.470;2023-04-15T06:39:43;102200.88;;;4.65;100.00
13420;BME280;6781;58.440;15.470;2023-04-15T06:42:10;102236.41;;;5.09;100.00
13420;BME280;6781;58.440;15.470;2023-04-15T06:44:38;102244.78;;;5.16;100.00
13420;BME280;6781;58.440;15.470;2023-04-15T06:47:05;102295.94;;;5.53;100.00
13420;BME280;6781;58.440;15.470;2023-04-15T06:49:39;102268.16;;;5.64;100.00
13420;BME280;6781;58.440;15.470;2023-04-15T06:52:07;102129.16;;;4.85;100.00
13420;BME280;6781;58.440;15.470;2023-04-15T06:54:34;102036.22;;;4.43;100.00
13420;BME280;6781;58.440;15.470;2023-04-15T06:57:03;102151.16;;;5.21;100.00
13420;BME280;6781;58.440;15.470;2023-04-15T06:59:30;102230.16;;;5.72;100.00
13420;BME280;6781;58.440;15.470;2023-04-15T07:01:57;101971.56;;;4.30;100.00
13420;BME280;6781;58.440;15.470;2023-04-15T07:04:25;102070.84;;;4.87;100.00
13420;BME280;6781;58.440;15.470;2023-04-15T07:06:52;102193.03;;;5.79;100.00
13420;BME280;6781;58.440;15.470;2023-04-15T07:09:20;102167.69;;;5.67;100.00
13420;BME280;6781;58.440;15.470;2023-04-15T07:11:47;102076.00;;;5.13;100.00
13420;BME280;6781;58.440;15.470;2023-04-15T07:14:16;102201.06;;;5.97;100.00
13420;BME280;6781;58.440;15.470;2023-04-15T07:16:43;102086.94;;;5.45;100.00
13420;BME280;6781;58.440;15.470;2023-04-15T07:19:10;102187.44;;;6.18;100.00
13420;BME280;6781;58.440;15.470;2023-04-15T07:21:37;102137.56;;;5.96;100.00
13420;BME280;6781;58.440;15.470;2023-04-15T07:24:05;102180.34;;;6.25;100.00
13420;BME280;6781;58.440;15.470;2023-04-15T07:26:32;102089.47;;;5.71;100.00
13420;BME280;6781;58.440;15.470;2023-04-15T07:28:59;102016.38;;;5.52;100.00
13420;BME280;6781;58.440;15.470;2023-04-15T07:31:27;102037.66;;;5.80;100.00
13420;BME280;6781;58.440;15.470;2023-04-15T07:33:54;102068.06;;;5.96;100.00
13420;BME280;6781;58.440;15.470;2023-04-15T07:36:22;102028.94;;;5.84;100.00
13420;BME280;6781;58.440;15.470;2023-04-15T07:38:49;102116.78;;;6.48;100.00
13420;BME280;6781;58.440;15.470;2023-04-15T07:41:19;101879.44;;;4.97;100.00
13420;BME280;6781;58.440;15.470;2023-04-15T07:43:46;101968.50;;;5.71;100.00
13420;BME280;6781;58.440;15.470;2023-04-15T07:46:13;102080.72;;;6.48;100.00
13420;BME280;6781;58.440;15.470;2023-04-15T07:48:42;102078.91;;;6.50;100.00
13420;BME280;6781;58.440;15.470;2023-04-15T07:51:09;101879.00;;;5.56;100.00
13420;BME280;6781;58.440;15.470;2023-04-15T07:53:37;101904.78;;;5.78;100.00
13420;BME280;6781;58.440;15.470;2023-04-15T07:56:04;101872.06;;;5.58;100.00
13420;BME280;6781;58.440;15.470;2023-04-15T07:58:32;101981.41;;;6.40;100.00
13420;BME280;6781;58.440;15.470;2023-04-15T08:01:00;102022.16;;;6.74;100.00
13420;BME280;6781;58.440;15.470;2023-04-15T08:03:27;102009.09;;;6.78;100.00
13420;BME280;6781;58.440;15.470;2023-04-15T08:05:56;102021.91;;;6.80;100.00
13420;BME280;6781;58.440;15.470;2023-04-15T08:08:23;101991.50;;;6.88;100.00
13420;BME280;6781;58.440;15.470;2023-04-15T08:10:50;101901.22;;;6.47;100.00
13420;BME280;6781;58.440;15.470;2023-04-15T08:13:18;101810.22;;;6.05;100.00
13420;BME280;6781;58.440;15.470;2023-04-15T08:15:45;101825.16;;;6.17;100.00
13420;BME280;6781;58.440;15.470;2023-04-15T08:18:12;101913.22;;;6.89;100.00
13420;BME280;6781;58.440;15.470;2023-04-15T08:20:39;101774.44;;;6.39;100.00
13420;BME280;6781;58.440;15.470;2023-04-15T08:23:08;101848.69;;;6.91;100.00
13420;BME280;6781;58.440;15.470;2023-04-15T08:25:35;101754.72;;;6.59;100.00
13420;BME280;6781;58.440;15.470;2023-04-15T08:28:03;101818.44;;;6.94;100.00
13420;BME280;6781;58.440;15.470;2023-04-15T08:30:31;101862.88;;;7.19;100.00
13420;BME280;6781;58.440;15.470;2023-04-15T08:32:59;101825.69;;;6.86;100.00
13420;BME280;6781;58.440;15.470;2023-04-15T08:35:26;101719.19;;;6.26;100.00
13420;BME280;6781;58.440;15.470;2023-04-15T08:37:53;101829.19;;;7.23;100.00
13420;BME280;6781;58.440;15.470;2023-04-15T08:40:26;101631.50;;;6.09;100.00
13420;BME280;6781;58.440;15.470;2023-04-15T08:43:01;101705.09;;;6.53;100.00
13420;BME280;6781;58.440;15.470;2023-04-15T08:45:29;101754.47;;;6.83;100.00
13420;BME280;6781;58.440;15.470;2023-04-15T08:47:57;101677.78;;;6.49;100.00
13420;BME280;6781;58.440;15.470;2023-04-15T08:50:25;101649.81;;;6.61;100.00
13420;BME280;6781;58.440;15.470;2023-04-15T08:52:55;101722.97;;;6.77;100.00
13420;BME280;6781;58.440;15.470;2023-04-15T08:55:31;101684.28;;;6.77;100.00
13420;BME280;6781;58.440;15.470;2023-04-15T08:58:01;101749.13;;;7.43;100.00
13420;BME280;6781;58.440;15.470;2023-04-15T09:00:29;101713.13;;;7.40;100.00
13420;BME280;6781;58.440;15.470;2023-04-15T09:02:58;101689.44;;;7.32;100.00
13420;BME280;6781;58.440;15.470;2023-04-15T09:05:25;101716.03;;;7.51;100.00
13420;BME280;6781;58.440;15.470;2023-04-15T09:07:56;101534.47;;;6.47;100.00
13420;BME280;6781;58.440;15.470;2023-04-15T09:10:26;101698.28;;;7.62;100.00
13420;BME280;6781;58.440;15.470;2023-04-15T09:12:54;101730.34;;;7.75;100.00
13420;BME280;6781;58.440;15.470;2023-04-15T09:15:23;101715.94;;;7.89;100.00
13420;BME280;6781;58.440;15.470;2023-04-15T09:17:55;101608.53;;;7.50;100.00
13420;BME280;6781;58.440;15.470;2023-04-15T09:20:39;101501.41;;;7.08;100.00
13420;BME280;6781;58.440;15.470;2023-04-15T09:23:12;101718.19;;;8.46;100.00
13420;BME280;6781;58.440;15.470;2023-04-15T09:25:48;101459.00;;;7.14;100.00
13420;BME280;6781;58.440;15.470;2023-04-15T09:28:23;101632.44;;;8.38;100.00
13420;BME280;6781;58.440;15.470;2023-04-15T09:30:51;101686.34;;;8.93;100.00
13420;BME280;6781;58.440;15.470;2023-04-15T09:33:19;101704.38;;;9.10;100.00
13420;BME280;6781;58.440;15.470;2023-04-15T09:35:56;101657.09;;;9.38;100.00
13420;BME280;6781;58.440;15.470;2023-04-15T09:38:24;101663.72;;;9.58;100.00
13420;BME280;6781;58.440;15.470;2023-04-15T09:40:53;101641.41;;;9.86;100.00
13420;BME280;6781;58.440;15.470;2023-04-15T09:43:20;101384.13;;;8.41;100.00
13420;BME280;6781;58.440;15.470;2023-04-15T09:45:48;101574.97;;;9.99;100.00
13420;BME280;6781;58.440;15.470;2023-04-15T09:48:18;101571.06;;;9.92;100.00
13420;BME280;6781;58.440;15.470;2023-04-15T09:50:46;101379.97;;;8.83;100.00
13420;BME280;6781;58.440;15.470;2023-04-15T09:53:19;101354.28;;;9.08;100.00
13420;BME280;6781;58.440;15.470;2023-04-15T09:55:49;101345.06;;;9.04;100.00
13420;BME280;6781;58.440;15.470;2023-04-15T09:58:22;101345.97;;;9.32;100.00
13420;BME280;6781;58.440;15.470;2023-04-15T10:00:51;101475.72;;;10.25;100.00
13420;BME280;6781;58.440;15.470;2023-04-15T10:03:19;101504.03;;;10.95;100.00
13420;BME280;6781;58.440;15.470;2023-04-15T10:05:48;101530.38;;;10.89;100.00
13420;BME280;6781;58.440;15.470;2023-04-15T10:08:17;101347.25;;;10.07;100.00
13420;BME280;6781;58.440;15.470;2023-04-15T10:10:51;101281.00;;;10.03;100.00
13420;BME280;6781;58.440;15.470;2023-04-15T10:13:49;101266.84;;;10.21;100.00
13420;BME280;6781;58.440;15.470;2023-04-15T10:16:57;101459.78;;;11.85;100.00
13420;BME280;6781;58.440;15.470;2023-04-15T10:20:22;101223.66;;;10.71;100.00
13420;BME280;6781;58.440;15.470;2023-04-15T10:23:31;101242.22;;;10.90;100.00
13420;BME280;6781;58.440;15.470;2023-04-15T10:26:43;101432.25;;;12.54;100.00
13420;BME280;6781;58.440;15.470;2023-04-15T11:16:55;101278.94;;;11.09;100.00
13420;BME280;6781;58.440;15.470;2023-04-15T11:19:22;101348.56;;;11.78;100.00
13420;BME280;6781;58.440;15.470;2023-04-15T11:21:50;101455.50;;;12.21;100.00
13420;BME280;6781;58.440;15.470;2023-04-15T11:27:39;101178.97;;;10.55;100.00
13420;BME280;6781;58.440;15.470;2023-04-15T11:30:40;101208.94;;;10.59;100.00
13420;BME280;6781;58.440;15.470;2023-04-15T11:39:49;101333.03;;;11.52;100.00
13420;BME280;6781;58.440;15.470;2023-04-15T11:42:20;101478.84;;;12.33;100.00
13420;BME280;6781;58.440;15.470;2023-04-15T11:45:07;101464.19;;;12.32;100.00
13420;BME280;6781;58.440;15.470;2023-04-15T11:47:40;101228.44;;;10.64;100.00
13420;BME280;6781;58.440;15.470;2023-04-15T11:50:26;101207.25;;;10.34;100.00
13420;BME280;6781;58.440;15.470;2023-04-15T11:53:09;101346.16;;;11.38;100.00
13420;BME280;6781;58.440;15.470;2023-04-15T11:59:04;101344.50;;;11.73;100.00
13420;BME280;6781;58.440;15.470;2023-04-15T12:01:34;101256.69;;;11.18;100.00
13420;BME280;6781;58.440;15.470;2023-04-15T12:04:10;101235.56;;;10.99;100.00
13420;BME280;6781;58.440;15.470;2023-04-15T12:06:37;101281.22;;;11.01;100.00
13420;BME280;6781;58.440;15.470;2023-04-15T12:09:10;101214.59;;;10.89;100.00
13420;BME280;6781;58.440;15.470;2023-04-15T12:11:57;101390.25;;;11.76;100.00
13420;BME280;6781;58.440;15.470;2023-04-15T12:14:28;101319.69;;;11.69;100.00
13420;BME280;6781;58.440;15.470;2023-04-15T12:16:57;101262.31;;;11.12;100.00
13420;BME280;6781;58.440;15.470;2023-04-15T12:19:43;101251.91;;;11.12;100.00
13420;BME280;6781;58.440;15.470;2023-04-15T12:22:15;101255.84;;;11.18;100.00
13420;BME280;6781;58.440;15.470;2023-04-15T12:24:44;101275.09;;;11.39;100.00
13420;BME280;6781;58.440;15.470;2023-04-15T12:27:14;101390.38;;;12.22;100.00
13420;BME280;6781;58.440;15.470;2023-04-15T12:29:46;101330.50;;;11.63;100.00
13420;BME280;6781;58.440;15.470;2023-04-15T12:32:14;101408.16;;;12.04;100.00
13420;BME280;6781;58.440;15.470;2023-04-15T12:34:43;101470.22;;;12.33;100.00
13420;BME280;6781;58.440;15.470;2023-04-15T12:37:11;101264.53;;;11.29;100.00
13420;BME280;6781;58.440;15.470;2023-04-15T12:39:56;101382.66;;;11.86;100.00
13420;BME280;6781;58.440;15.470;2023-04-15T12:42:32;101227.34;;;11.05;100.00
13420;BME280;6781;58.440;15.470;2023-04-15T12:45:01;101251.19;;;11.10;100.00
13420;BME280;6781;58.440;15.470;2023-04-15T12:47:29;101255.66;;;11.08;100.00
13420;BME280;6781;58.440;15.470;2023-04-15T12:50:01;101345.81;;;11.92;100.00
13420;BME280;6781;58.440;15.470;2023-04-15T12:52:30;101356.06;;;12.17;100.00
13420;BME280;6781;58.440;15.470;2023-04-15T12:54:57;101353.66;;;12.03;100.00
13420;BME280;6781;58.440;15.470;2023-04-15T12:57:25;101408.06;;;12.87;100.00
13420;BME280;6781;58.440;15.470;2023-04-15T12:59:52;101463.53;;;13.12;100.00
13420;BME280;6781;58.440;15.470;2023-04-15T13:02:20;101393.94;;;12.32;100.00
13420;BME280;6781;58.440;15.470;2023-04-15T13:04:50;101410.75;;;12.04;100.00
13420;BME280;6781;58.440;15.470;2023-04-15T13:07:17;101284.84;;;11.48;100.00
13420;BME280;6781;58.440;15.470;2023-04-15T13:09:44;101322.88;;;11.49;100.00
13420;BME280;6781;58.440;15.470;2023-04-15T13:12:13;101499.56;;;12.35;100.00
13420;BME280;6781;58.440;15.470;2023-04-15T13:14:41;101276.84;;;11.15;100.00
13420;BME280;6781;58.440;15.470;2023-04-15T13:17:08;101274.69;;;10.96;100.00
13420;BME280;6781;58.440;15.470;2023-04-15T13:19:47;101302.00;;;10.76;100.00
13420;BME280;6781;58.440;15.470;2023-04-15T13:22:17;101426.16;;;11.58;100.00
13420;BME280;6781;58.440;15.470;2023-04-15T13:24:45;101233.66;;;10.52;100.00
13420;BME280;6781;58.440;15.470;2023-04-15T13:27:13;101296.00;;;10.63;100.00
13420;BME280;6781;58.440;15.470;2023-04-15T13:29:42;101291.25;;;10.31;100.00
13420;BME280;6781;58.440;15.470;2023-04-15T13:32:17;101254.63;;;10.23;100.00
13420;BME280;6781;58.440;15.470;2023-04-15T13:34:51;101323.59;;;10.64;100.00
13420;BME280;6781;58.440;15.470;2023-04-15T13:37:19;101503.00;;;12.12;100.00
13420;BME280;6781;58.440;15.470;2023-04-15T13:39:51;101290.41;;;10.69;100.00
13420;BME280;6781;58.440;15.470;2023-04-15T13:42:23;101313.44;;;10.86;100.00
13420;BME280;6781;58.440;15.470;2023-04-15T13:44:56;101397.72;;;11.06;100.00
13420;BME280;6781;58.440;15.470;2023-04-15T13:47:42;101497.63;;;11.77;100.00
13420;BME280;6781;58.440;15.470;2023-04-15T13:50:13;101301.19;;;10.37;100.00
13420;BME280;6781;58.440;15.470;2023-04-15T13:52:55;101291.03;;;10.60;100.00
13420;BME280;6781;58.440;15.470;2023-04-15T13:55:45;101509.50;;;11.81;100.00
13420;BME280;6781;58.440;15.470;2023-04-15T13:58:28;101433.63;;;11.50;100.00
13420;BME280;6781;58.440;15.470;2023-04-15T14:00:58;101324.63;;;10.49;100.00
13420;BME280;6781;58.440;15.470;2023-04-15T14:03:50;101303.38;;;10.31;100.00
13420;BME280;6781;58.440;15.470;2023-04-15T14:06:33;101299.94;;;10.30;100.00
13420;BME280;6781;58.440;15.470;2023-04-15T14:09:02;101341.31;;;10.44;100.00
13420;BME280;6781;58.440;15.470;2023-04-15T14:11:33;101292.09;;;10.05;100.00
13420;BME280;6781;58.440;15.470;2023-04-15T14:14:10;101320.53;;;10.19;100.00
13420;BME280;6781;58.440;15.470;2023-04-15T14:16:46;101318.81;;;10.32;100.00